Time;durP1;ratioP1;P1;durP2;ratioP2;P2;SDS_P1;SDS_P2;PMS_P1;PMS_P2;Temp;Humidity;BMP_temperature;BMP_pressure;BME280_temperature;BME280_humidity;BME280_pressure;Samples;Min_cycle;Max_cycle;Signal;HPM_P1;HPM_P2
2023/02/14 00:01:44;;;;;;;23.10;11.57;;;5.00;95.40;;;;;;5015721;28;20073;-74
2023/02/14 00:04:10;;;;;;;23.05;13.65;;;5.30;95.20;;;;;;5019008;28;20076;-74
2023/02/14 00:06:37;;;;;;;24.17;11.40;;;5.20;95.20;;;;;;5016304;28;20021;-74
2023/02/14 00:09:05;;;;;;;23.90;11.90;;;5.20;95.20;;;;;;5020937;28;20084;-74
2023/02/14 00:11:31;;;;;;;25.65;13.15;;;5.00;95.30;;;;;;5024037;28;20610;-74
2023/02/14 00:16:42;;;;;;;19.35;11.15;;;5.10;95.30;;;;;;5012285;28;20091;-74
2023/02/14 00:19:10;;;;;;;21.67;12.27;;;5.10;95.30;;;;;;5020390;28;20026;-74
2023/02/14 00:21:37;;;;;;;22.27;11.15;;;5.10;95.30;;;;;;5010968;28;20132;-74
2023/02/14 00:24:08;;;;;;;23.40;11.15;;;5.30;95.10;;;;;;5024882;28;20028;-74
2023/02/14 00:26:37;;;;;;;24.55;10.73;;;5.10;95.30;;;;;;5018887;28;20034;-74
2023/02/14 00:29:03;;;;;;;22.20;11.80;;;4.80;95.80;;;;;;5018735;28;20031;-74
2023/02/14 00:31:29;;;;;;;24.25;12.82;;;4.70;95.80;;;;;;5017831;28;20033;-74
2023/02/14 00:33:54;;;;;;;18.50;10.23;;;4.80;96.00;;;;;;5016494;28;20034;-74
2023/02/14 00:36:20;;;;;;;20.80;11.27;;;4.90;95.80;;;;;;5020205;28;20029;-74
2023/02/14 00:38:46;;;;;;;22.00;12.23;;;4.90;95.70;;;;;;5023095;28;20057;-74
2023/02/14 00:41:18;;;;;;;19.38;11.30;;;4.90;95.80;;;;;;5018759;28;20083;-74
2023/02/14 00:43:48;;;;;;;21.42;11.75;;;4.80;96.10;;;;;;5014896;28;20028;-74
2023/02/14 00:46:14;;;;;;;25.73;12.43;;;4.70;96.00;;;;;;5020003;28;20551;-74
2023/02/14 00:48:40;;;;;;;27.27;11.70;;;4.70;96.20;;;;;;5019843;28;20033;-74
2023/02/14 00:51:06;;;;;;;25.25;11.80;;;4.60;96.10;;;;;;5016383;28;20033;-74
2023/02/14 00:53:31;;;;;;;19.33;10.55;;;4.50;96.40;;;;;;5023458;28;20109;-74
2023/02/14 00:55:57;;;;;;;21.83;11.18;;;4.50;96.40;;;;;;5014493;28;20050;-74
2023/02/14 00:58:22;;;;;;;18.50;9.38;;;4.40;96.40;;;;;;5012962;28;20029;-74
2023/02/14 01:00:48;;;;;;;20.13;10.77;;;4.60;96.30;;;;;;5021735;28;20525;-74
2023/02/14 01:03:14;;;;;;;19.83;10.93;;;4.60;96.40;;;;;;5025441;28;20025;-74
2023/02/14 01:05:40;;;;;;;20.35;10.40;;;4.40;96.40;;;;;;5026177;28;20029;-74
2023/02/14 01:08:06;;;;;;;21.60;12.50;;;4.30;96.80;;;;;;5024864;28;20116;-74
2023/02/14 01:10:31;;;;;;;21.35;12.75;;;4.50;96.70;;;;;;5021130;28;20168;-74
2023/02/14 01:12:57;;;;;;;23.35;11.77;;;4.30;97.00;;;;;;5021331;28;20044;-74
2023/02/14 01:15:23;;;;;;;24.42;11.50;;;4.50;96.90;;;;;;5025847;28;20084;-74
2023/02/14 01:17:49;;;;;;;26.25;12.15;;;4.40;96.70;;;;;;5023701;28;20391;-74
2023/02/14 01:20:14;;;;;;;18.55;10.32;;;4.30;97.10;;;;;;5025292;28;20033;-74
2023/02/14 01:22:40;;;;;;;19.30;11.02;;;4.30;96.80;;;;;;5027569;28;20033;-74
2023/02/14 01:25:06;;;;;;;21.13;10.65;;;4.30;96.90;;;;;;5027822;28;20419;-74
2023/02/14 01:27:32;;;;;;;20.08;10.82;;;4.30;97.00;;;;;;5023874;28;20091;-74
2023/02/14 01:29:57;;;;;;;18.50;9.48;;;4.30;97.00;;;;;;5024207;28;20033;-74
2023/02/14 01:32:23;;;;;;;14.02;8.07;;;4.70;96.40;;;;;;5028950;28;20138;-74
2023/02/14 01:34:49;;;;;;;16.55;8.55;;;5.10;95.50;;;;;;5021327;28;20113;-74
2023/02/14 01:37:14;;;;;;;20.98;8.98;;;5.10;95.40;;;;;;5024658;28;20534;-74
2023/02/14 01:39:40;;;;;;;19.50;10.82;;;5.10;95.50;;;;;;5023718;28;20029;-74
2023/02/14 01:42:06;;;;;;;19.65;10.55;;;4.60;96.10;;;;;;5026012;28;20036;-75
2023/02/14 01:44:31;;;;;;;19.45;11.65;;;4.00;97.40;;;;;;5027841;28;20025;-74
2023/02/14 01:46:59;;;;;;;16.75;9.32;;;4.00;97.60;;;;;;5025992;28;20029;-74
2023/02/14 01:49:33;;;;;;;17.05;8.75;;;3.80;97.80;;;;;;5023589;28;20033;-75
2023/02/14 01:52:07;;;;;;;20.60;9.38;;;3.50;98.50;;;;;;5021999;28;20478;-74
2023/02/14 01:54:37;;;;;;;22.67;9.05;;;3.70;98.30;;;;;;5028273;28;20030;-74
2023/02/14 01:57:06;;;;;;;14.80;8.68;;;4.20;97.30;;;;;;5022147;28;20037;-74
2023/02/14 01:59:40;;;;;;;13.90;7.68;;;4.80;96.20;;;;;;5022193;28;20060;-74
2023/02/14 02:02:06;;;;;;;15.25;8.23;;;5.00;95.80;;;;;;5016476;28;20045;-74
2023/02/14 02:04:37;;;;;;;16.73;8.20;;;5.00;95.70;;;;;;5014934;28;20396;-74
2023/02/14 02:07:10;;;;;;;16.85;8.82;;;4.80;95.80;;;;;;5016119;28;20018;-75
2023/02/14 02:09:43;;;;;;;16.27;8.27;;;4.70;96.00;;;;;;5023656;28;20037;-74
2023/02/14 02:12:09;;;;;;;17.15;8.75;;;4.50;96.40;;;;;;5024309;28;20033;-74
2023/02/14 02:14:35;;;;;;;18.25;10.15;;;4.30;97.00;;;;;;5026454;28;20033;-74
2023/02/14 02:17:16;;;;;;;17.50;8.15;;;4.40;96.80;;;;;;5018478;28;20036;-74
2023/02/14 02:19:48;;;;;;;15.98;7.95;;;4.60;96.60;;;;;;5025294;28;20036;-74
2023/02/14 02:22:20;;;;;;;16.88;7.78;;;4.50;96.40;;;;;;5023936;28;20475;-74
2023/02/14 02:25:23;;;;;;;14.13;7.45;;;4.30;96.70;;;;;;5021569;28;20025;-74
2023/02/14 02:28:19;;;;;;;22.80;11.23;;;4.40;96.90;;;;;;5016454;28;20025;-74
2023/02/14 02:30:48;;;;;;;22.48;10.95;;;4.60;96.10;;;;;;5022764;28;20045;-74
2023/02/14 02:33:31;;;;;;;17.88;9.55;;;4.00;97.30;;;;;;5019798;28;20033;-74
2023/02/14 02:36:05;;;;;;;17.52;7.95;;;4.10;97.20;;;;;;5017324;28;20056;-74
2023/02/14 02:38:37;;;;;;;20.08;8.77;;;4.30;96.90;;;;;;5018540;28;20495;-74
2023/02/14 02:41:18;;;;;;;13.48;7.65;;;4.50;96.50;;;;;;5022342;28;20037;-74
2023/02/14 02:43:44;;;;;;;16.42;8.63;;;4.80;96.20;;;;;;5019690;28;20029;-74
2023/02/14 02:53:02;;;;;;;14.00;6.95;;;5.20;95.30;;;;;;5017373;28;20041;-74
2023/02/14 02:58:31;;;;;;;16.35;8.32;;;5.20;95.20;;;;;;5022024;28;20104;-74
2023/02/14 03:00:59;;;;;;;14.80;8.30;;;4.90;95.60;;;;;;5018272;28;20073;-74
2023/02/14 03:06:11;;;;;;;18.17;9.20;;;4.50;96.20;;;;;;5021071;28;20040;-74
2023/02/14 03:08:37;;;;;;;15.43;8.65;;;4.40;96.40;;;;;;5026407;28;20025;-74
2023/02/14 03:11:04;;;;;;;16.10;6.80;;;4.20;96.90;;;;;;5018349;28;20034;-74
2023/02/14 03:13:40;;;;;;;16.85;7.97;;;4.40;96.60;;;;;;5018161;28;20043;-74
2023/02/14 03:16:14;;;;;;;12.95;6.78;;;4.60;96.20;;;;;;5023014;28;20103;-74
2023/02/14 03:18:52;;;;;;;;;;;4.70;96.00;;;;;;5026868;28;20391;-74
2023/02/14 03:21:51;;;;;;;12.70;7.38;;;4.30;96.50;;;;;;5024232;28;19924;-74
2023/02/14 03:24:22;;;;;;;14.15;7.82;;;4.20;96.90;;;;;;5022815;28;20029;-74
2023/02/14 03:27:00;;;;;;;17.08;8.30;;;4.10;96.90;;;;;;5025026;28;20033;-74
2023/02/14 03:29:41;;;;;;;15.68;6.75;;;4.50;96.90;;;;;;5025715;28;20099;-74
2023/02/14 03:32:18;;;;;;;15.57;7.35;;;4.70;96.10;;;;;;5022608;28;20365;-74
2023/02/14 03:34:51;;;;;;;12.27;6.15;;;4.90;95.80;;;;;;5026886;28;20040;-74
2023/02/14 03:37:39;;;;;;;16.25;7.32;;;4.90;95.70;;;;;;5023989;28;20046;-74
2023/02/14 03:40:14;;;;;;;15.50;6.85;;;5.20;95.10;;;;;;5023748;28;20047;-74
2023/02/14 03:42:49;;;;;;;12.55;6.03;;;4.90;95.40;;;;;;5030832;28;20130;-74
2023/02/14 03:45:43;;;;;;;14.00;6.05;;;5.20;95.20;;;;;;5023891;28;20022;-74
2023/02/14 03:48:12;;;;;;;12.02;5.82;;;4.90;95.30;;;;;;5027678;28;20399;-74
2023/02/14 03:50:41;;;;;;;11.55;6.00;;;4.80;95.60;;;;;;5025198;28;20029;-74
2023/02/14 03:53:10;;;;;;;13.13;6.22;;;4.90;95.50;;;;;;5025279;28;20105;-74
2023/02/14 03:55:45;;;;;;;12.75;5.75;;;4.90;95.30;;;;;;5021758;28;20029;-74
2023/02/14 03:58:27;;;;;;;12.27;6.18;;;5.00;95.30;;;;;;5027496;28;20025;-74
2023/02/14 04:00:59;;;;;;;12.15;6.07;;;4.90;95.20;;;;;;5026301;28;20037;-74
2023/02/14 04:03:27;;;;;;;12.77;6.47;;;4.50;95.50;;;;;;5022706;28;20021;-74
2023/02/14 04:05:53;;;;;;;11.15;5.85;;;4.40;95.90;;;;;;5023354;28;20098;-75
2023/02/14 04:08:25;;;;;;;13.93;6.18;;;4.00;96.20;;;;;;5027037;28;20032;-74
2023/02/14 04:10:52;;;;;;;14.95;6.32;;;3.90;96.80;;;;;;5014533;28;20026;-74
2023/02/14 04:13:18;;;;;;;9.90;5.35;;;4.00;96.60;;;;;;5012139;28;20069;-74
2023/02/14 04:15:44;;;;;;;12.20;5.10;;;3.80;96.90;;;;;;5015264;28;20091;-74
2023/02/14 04:20:54;;;;;;;15.00;6.25;;;3.80;96.90;;;;;;5017312;28;20632;-74
2023/02/14 04:23:20;;;;;;;12.52;5.38;;;4.30;96.60;;;;;;5017184;28;20034;-73
2023/02/14 04:25:46;;;;;;;11.55;6.18;;;4.10;96.50;;;;;;5022067;28;20091;-73
2023/02/14 04:28:12;;;;;;;11.27;5.63;;;3.90;96.60;;;;;;5023022;28;20098;-73
2023/02/14 04:30:38;;;;;;;11.65;5.93;;;4.20;96.70;;;;;;5014337;28;20361;-73
2023/02/14 04:33:03;;;;;;;12.05;6.00;;;4.20;96.30;;;;;;5020359;28;20029;-73
2023/02/14 04:35:30;;;;;;;10.73;5.25;;;4.40;96.10;;;;;;5018328;28;20033;-74
2023/02/14 04:37:56;;;;;;;11.30;5.97;;;3.60;96.90;;;;;;5019946;28;20058;-74
2023/02/14 04:40:21;;;;;;;9.98;5.63;;;3.60;97.40;;;;;;5013378;28;20668;-74
2023/02/14 04:42:47;;;;;;;17.60;5.72;;;3.70;97.70;;;;;;5018750;28;20041;-74
2023/02/14 04:45:13;;;;;;;10.07;5.15;;;4.50;96.40;;;;;;5016900;28;20091;-74
2023/02/14 04:47:39;;;;;;;11.30;5.40;;;4.40;96.20;;;;;;5016688;28;20035;-74
2023/02/14 04:50:05;;;;;;;10.15;4.93;;;4.60;96.10;;;;;;5020953;28;20101;-74
2023/02/14 04:52:31;;;;;;;13.55;5.00;;;4.60;95.90;;;;;;5015915;28;20066;-74
2023/02/14 04:54:57;;;;;;;11.90;5.70;;;4.70;95.70;;;;;;5016294;28;20067;-74
2023/02/14 04:57:22;;;;;;;11.30;5.03;;;4.60;95.80;;;;;;5014213;28;20022;-74
2023/02/14 04:59:48;;;;;;;10.30;5.75;;;4.40;95.80;;;;;;5012530;28;20026;-74
2023/02/14 05:02:14;;;;;;;9.27;4.90;;;3.90;96.30;;;;;;5018861;28;20065;-74
2023/02/14 05:04:39;;;;;;;8.88;4.70;;;3.60;97.10;;;;;;5018980;28;20087;-74
2023/02/14 05:07:06;;;;;;;11.27;5.15;;;3.60;97.10;;;;;;5019069;28;20029;-74
2023/02/14 05:09:31;;;;;;;10.32;5.57;;;3.70;97.30;;;;;;5015552;28;20057;-74
2023/02/14 05:11:57;;;;;;;11.02;5.10;;;3.70;97.10;;;;;;5016782;28;20072;-74
2023/02/14 05:14:23;;;;;;;10.75;5.68;;;3.80;97.10;;;;;;5015108;28;20026;-74
2023/02/14 05:16:48;;;;;;;9.82;4.97;;;3.90;96.80;;;;;;5015495;28;20478;-74
2023/02/14 05:19:14;;;;;;;7.65;4.57;;;3.80;96.90;;;;;;5016495;28;20108;-74
2023/02/14 05:21:40;;;;;;;9.98;4.75;;;3.60;97.30;;;;;;5011289;28;20041;-74
2023/02/14 05:24:05;;;;;;;9.48;4.88;;;3.50;97.40;;;;;;5018651;28;20048;-74
2023/02/14 05:26:31;;;;;;;8.27;5.13;;;3.80;97.20;;;;;;5021364;28;20483;-74
2023/02/14 05:28:57;;;;;;;11.10;5.57;;;3.90;96.70;;;;;;5017459;28;20087;-74
2023/02/14 05:31:23;;;;;;;9.73;4.93;;;4.00;96.60;;;;;;5019565;28;20037;-74
2023/02/14 05:33:49;;;;;;;10.52;4.32;;;3.90;96.60;;;;;;5021703;28;20029;-74
2023/02/14 05:36:14;;;;;;;10.85;5.30;;;3.80;96.90;;;;;;5010251;28;20040;-74
2023/02/14 05:38:40;;;;;;;10.38;5.15;;;3.80;96.80;;;;;;5014374;28;20053;-74
2023/02/14 05:41:05;;;;;;;9.90;5.03;;;4.20;96.70;;;;;;5017888;28;20041;-74
2023/02/14 05:43:31;;;;;;;9.68;5.40;;;4.40;96.20;;;;;;5021769;28;20509;-74
2023/02/14 05:45:57;;;;;;;10.18;4.80;;;4.30;96.20;;;;;;5014060;28;20025;-74
2023/02/14 05:48:23;;;;;;;12.65;5.57;;;4.30;96.20;;;;;;5022686;28;20033;-74
2023/02/14 05:50:49;;;;;;;9.25;4.50;;;4.40;96.00;;;;;;5014000;28;20033;-74
2023/02/14 05:53:15;;;;;;;8.63;4.60;;;4.20;96.30;;;;;;5016479;28;20018;-74
2023/02/14 05:55:40;;;;;;;12.52;4.78;;;4.20;96.30;;;;;;5014717;28;20067;-74
2023/02/14 05:58:06;;;;;;;12.68;5.78;;;3.90;96.40;;;;;;5009311;28;20021;-74
2023/02/14 06:00:33;;;;;;;10.52;5.00;;;4.10;96.60;;;;;;5018489;28;20034;-74
2023/02/14 06:02:59;;;;;;;14.38;4.90;;;4.00;96.10;;;;;;5017126;28;20691;-74
2023/02/14 06:05:25;;;;;;;8.95;4.25;;;3.70;96.70;;;;;;5017997;28;20029;-74
2023/02/14 06:07:52;;;;;;;12.10;4.68;;;3.60;96.80;;;;;;5013245;28;20121;-74
2023/02/14 06:10:22;;;;;;;8.40;4.35;;;3.60;97.00;;;;;;5016163;28;20112;-74
2023/02/14 06:12:49;;;;;;;12.73;4.75;;;3.70;97.10;;;;;;5017058;28;20032;-74
2023/02/14 06:15:15;;;;;;;6.95;4.40;;;3.80;96.80;;;;;;5022038;28;20055;-74
2023/02/14 06:17:42;;;;;;;8.57;4.05;;;3.50;97.10;;;;;;5017711;28;20037;-74
2023/02/14 06:20:08;;;;;;;14.45;4.28;;;3.60;97.20;;;;;;5018742;28;20030;-74
2023/02/14 06:22:35;;;;;;;15.93;5.63;;;3.80;96.80;;;;;;5021324;28;20037;-74
2023/02/14 06:25:00;;;;;;;8.23;4.28;;;3.70;97.00;;;;;;5025621;28;20164;-74
2023/02/14 06:27:28;;;;;;;8.60;4.85;;;3.80;96.70;;;;;;5023693;28;20109;-73
2023/02/14 06:29:54;;;;;;;9.07;4.30;;;3.90;96.70;;;;;;5015847;28;20108;-74
2023/02/14 06:32:20;;;;;;;12.85;5.57;;;3.70;96.90;;;;;;5020307;28;20156;-74
2023/02/14 06:34:45;;;;;;;10.02;5.43;;;3.60;97.20;;;;;;5022368;28;20029;-74
2023/02/14 06:37:11;;;;;;;8.50;5.05;;;3.80;96.90;;;;;;5023981;28;20064;-74
2023/02/14 06:39:37;;;;;;;9.30;4.90;;;4.10;96.40;;;;;;5024108;28;20026;-75
2023/02/14 06:42:03;;;;;;;8.90;5.13;;;3.70;96.80;;;;;;5028688;28;20099;-76
2023/02/14 06:44:29;;;;;;;11.07;5.93;;;3.90;96.70;;;;;;5026428;28;20037;-75
2023/02/14 06:46:55;;;;;;;12.23;6.45;;;3.90;96.80;;;;;;5023964;28;20030;-76
2023/02/14 06:49:20;;;;;;;12.30;5.47;;;3.70;97.30;;;;;;5024510;28;20032;-75
2023/02/14 06:51:46;;;;;;;13.80;5.55;;;3.70;97.20;;;;;;5023837;28;20112;-76
2023/02/14 06:54:12;;;;;;;8.52;4.13;;;3.60;97.20;;;;;;5020531;28;20460;-74
2023/02/14 06:56:37;;;;;;;8.57;4.60;;;3.90;96.90;;;;;;5021014;28;20037;-75
2023/02/14 06:59:03;;;;;;;8.55;3.78;;;4.30;96.20;;;;;;5018437;28;20033;-75
2023/02/14 07:01:28;;;;;;;9.48;3.85;;;4.50;95.80;;;;;;5020508;28;20045;-75
2023/02/14 07:03:54;;;;;;;13.63;6.68;;;4.80;95.20;;;;;;5021418;28;20526;-75
2023/02/14 07:06:20;;;;;;;13.73;5.72;;;4.40;95.80;;;;;;5019697;28;20112;-75
2023/02/14 07:08:45;;;;;;;10.90;5.30;;;4.00;96.40;;;;;;5021032;28;20025;-75
2023/02/14 07:11:11;;;;;;;11.15;6.68;;;4.00;96.40;;;;;;5019059;28;20021;-75
2023/02/14 07:13:36;;;;;;;11.30;5.45;;;3.80;96.90;;;;;;5019455;28;20028;-75
2023/02/14 07:16:02;;;;;;;10.07;5.00;;;3.60;97.50;;;;;;5020006;28;20906;-75
2023/02/14 07:18:28;;;;;;;7.95;4.18;;;3.70;97.30;;;;;;5020565;28;20033;-75
2023/02/14 07:20:53;;;;;;;10.73;3.58;;;3.90;96.70;;;;;;5019251;28;20049;-75
2023/02/14 07:23:19;;;;;;;8.15;4.00;;;4.10;96.50;;;;;;5021028;28;21163;-75
2023/02/14 07:25:45;;;;;;;7.50;3.30;;;4.40;95.80;;;;;;5019630;28;20199;-75
2023/02/14 07:28:10;;;;;;;10.82;5.50;;;4.50;95.70;;;;;;5016525;28;20431;-74
2023/02/14 07:30:36;;;;;;;9.18;4.20;;;4.20;96.00;;;;;;5018219;28;20076;-74
2023/02/14 07:33:02;;;;;;;10.40;3.33;;;4.60;95.60;;;;;;5019498;28;20033;-74
2023/02/14 07:35:27;;;;;;;8.65;3.30;;;4.80;95.20;;;;;;5017999;28;20026;-76
2023/02/14 07:37:53;;;;;;;7.78;3.55;;;4.80;95.00;;;;;;5020306;28;20045;-76
2023/02/14 07:40:19;;;;;;;8.43;3.97;;;4.80;95.10;;;;;;5016704;28;20025;-74
2023/02/14 07:42:55;;;;;;;8.88;3.92;;;4.80;95.00;;;;;;5019353;28;20044;-74
2023/02/14 07:45:21;;;;;;;6.38;3.25;;;4.80;95.00;;;;;;5020286;28;20086;-76
2023/02/14 07:47:52;;;;;;;8.93;3.60;;;4.90;94.90;;;;;;5024128;28;20029;-76
2023/02/14 07:50:19;;;;;;;8.93;3.80;;;4.90;94.90;;;;;;5023126;28;20037;-75
2023/02/14 07:52:45;;;;;;;8.52;3.30;;;4.90;94.70;;;;;;5018874;28;20122;-75
2023/02/14 07:55:11;;;;;;;7.10;3.67;;;5.10;94.50;;;;;;5017048;28;20112;-76
2023/02/14 07:57:37;;;;;;;6.43;3.15;;;5.10;94.50;;;;;;5017506;28;20021;-76
2023/02/14 08:00:04;;;;;;;9.73;3.65;;;5.30;94.20;;;;;;5019730;28;20030;-75
2023/02/14 08:02:30;;;;;;;7.75;3.53;;;5.40;93.90;;;;;;5017461;28;20049;-74
2023/02/14 08:04:56;;;;;;;6.70;3.40;;;5.50;93.70;;;;;;5022953;28;20041;-76
2023/02/14 08:07:21;;;;;;;9.02;5.32;;;5.50;93.60;;;;;;5018156;28;20040;-76
2023/02/14 08:09:47;;;;;;;15.77;7.97;;;5.00;94.70;;;;;;5015853;28;20018;-75
2023/02/14 08:16:03;;;;;;;11.25;6.53;;;4.10;96.30;;;;;;5023104;28;20667;-76
2023/02/14 08:17:42;;;;;;;7.78;3.55;;;3.90;96.70;;;;;;5022409;28;20180;-76
2023/02/14 08:20:08;;;;;;;7.13;3.80;;;4.60;95.20;;;;;;5022657;28;20147;-74
2023/02/14 08:22:34;;;;;;;7.18;3.45;;;4.80;94.90;;;;;;5017495;28;20442;-75
2023/02/14 08:24:59;;;;;;;10.13;3.50;;;4.90;94.60;;;;;;5020342;28;20121;-75
2023/02/14 08:27:25;;;;;;;8.85;3.38;;;5.00;94.40;;;;;;5013177;28;20034;-74
2023/02/14 08:29:50;;;;;;;7.30;3.63;;;5.10;94.20;;;;;;5025891;28;20026;-75
2023/02/14 08:32:19;;;;;;;7.80;3.58;;;5.30;93.90;;;;;;5025645;28;20400;-75
2023/02/14 08:34:45;;;;;;;8.38;3.80;;;5.30;93.80;;;;;;5026174;28;20021;-74
2023/02/14 08:37:11;;;;;;;8.95;3.92;;;5.20;94.40;;;;;;5027210;28;20042;-71
2023/02/14 08:39:38;;;;;;;7.15;3.38;;;5.00;94.50;;;;;;5025730;28;20441;-76
2023/02/14 08:42:04;;;;;;;9.30;3.40;;;4.90;94.70;;;;;;5025346;28;20038;-75
2023/02/14 08:44:30;;;;;;;5.68;2.90;;;4.70;95.10;;;;;;5026287;28;20518;-77
2023/02/14 08:46:55;;;;;;;6.85;3.35;;;5.00;94.50;;;;;;5025830;28;20025;-74
2023/02/14 08:49:21;;;;;;;7.40;3.47;;;5.20;94.00;;;;;;5025722;28;20026;-73
2023/02/14 08:51:47;;;;;;;7.85;3.15;;;5.50;93.70;;;;;;5027296;28;20033;-73
2023/02/14 08:54:12;;;;;;;9.18;2.60;;;5.60;93.40;;;;;;5025914;28;20071;-76
2023/02/14 08:56:39;;;;;;;6.85;3.60;;;5.60;93.20;;;;;;5024778;28;20033;-76
2023/02/14 08:59:05;;;;;;;7.30;3.20;;;5.90;95.70;;;;;;5026214;28;20463;-76
2023/02/14 09:01:31;;;;;;;10.50;3.95;;;5.80;93.30;;;;;;5025546;28;20533;-78
2023/02/14 09:03:57;;;;;;;6.93;3.13;;;6.20;93.80;;;;;;5025666;28;20033;-76
2023/02/14 09:06:22;;;;;;;6.43;2.88;;;5.90;93.50;;;;;;5027347;28;20029;-75
2023/02/14 09:08:49;;;;;;;7.55;3.53;;;5.60;93.60;;;;;;5025604;28;20060;-75
2023/02/14 09:11:18;;;;;;;7.88;3.58;;;5.60;93.80;;;;;;5025674;28;20530;-75
2023/02/14 09:13:44;;;;;;;7.90;2.88;;;5.50;94.00;;;;;;5025870;28;20109;-75
2023/02/14 09:16:13;;;;;;;5.30;2.85;;;5.40;94.20;;;;;;5024761;28;20084;-77
2023/02/14 09:18:39;;;;;;;6.93;5.07;;;5.50;94.10;;;;;;5023818;28;20489;-75
2023/02/14 09:21:14;;;;;;;10.25;4.55;;;5.60;94.20;;;;;;5025353;28;20049;-77
2023/02/14 09:23:40;;;;;;;6.72;3.33;;;5.50;93.90;;;;;;5026903;28;20029;-75
2023/02/14 09:26:08;;;;;;;5.97;3.38;;;5.80;93.40;;;;;;5024987;28;20391;-75
2023/02/14 09:28:35;;;;;;;7.53;3.65;;;6.00;93.30;;;;;;5025950;28;20442;-76
2023/02/14 09:31:16;;;;;;;6.68;3.10;;;6.00;93.40;;;;;;5026827;28;20021;-75
2023/02/14 09:39:12;;;;;;;8.37;3.20;;;6.30;93.00;;;;;;5023993;28;20072;-75
2023/02/14 09:42:00;;;;;;;7.40;3.42;;;6.40;93.10;;;;;;5025183;28;20339;-74
2023/02/14 09:44:32;;;;;;;7.07;3.60;;;6.50;93.00;;;;;;5025165;28;20643;-73
2023/02/14 09:47:05;;;;;;;7.90;3.72;;;6.60;93.00;;;;;;5027568;28;20068;-74
2023/02/14 09:49:36;;;;;;;6.22;3.00;;;6.60;92.70;;;;;;5027075;28;20037;-75
2023/02/14 09:52:03;;;;;;;8.27;3.28;;;6.80;92.80;;;;;;5024246;28;20029;-75
2023/02/14 09:54:33;;;;;;;5.38;3.00;;;6.90;93.30;;;;;;5025473;28;20033;-75
2023/02/14 09:57:14;;;;;;;9.15;5.50;;;7.40;92.30;;;;;;5023274;28;20030;-74
2023/02/14 09:59:51;;;;;;;7.72;3.85;;;7.20;92.50;;;;;;5024582;28;20034;-74
2023/02/14 10:02:35;;;;;;;8.68;4.85;;;7.10;92.00;;;;;;5024675;28;20045;-75
2023/02/14 10:05:12;;;;;;;7.65;3.85;;;7.10;91.90;;;;;;5024315;28;20379;-74
2023/02/14 10:08:15;;;;;;;7.00;3.28;;;7.20;92.00;;;;;;5024744;28;20228;-75
2023/02/14 10:10:43;;;;;;;7.40;3.95;;;7.20;91.80;;;;;;5024243;28;20041;-75
2023/02/14 10:13:28;;;;;;;8.07;3.85;;;7.30;92.70;;;;;;5024648;28;20029;-75
2023/02/14 10:16:15;;;;;;;8.00;3.80;;;7.20;92.80;;;;;;5024055;28;20116;-75
2023/02/14 10:18:44;;;;;;;8.23;3.95;;;7.10;92.80;;;;;;5022956;28;20383;-75
2023/02/14 10:21:20;;;;;;;7.00;3.63;;;7.00;92.50;;;;;;5025346;28;20555;-75
2023/02/14 10:23:54;;;;;;;8.10;3.58;;;7.00;92.40;;;;;;5024365;28;20368;-75
2023/02/14 10:26:33;;;;;;;7.13;3.72;;;7.50;92.60;;;;;;5023833;28;20032;-76
2023/02/14 10:28:59;;;;;;;11.27;3.53;;;7.60;91.90;;;;;;5024162;28;20035;-75
2023/02/14 10:31:34;;;;;;;11.40;3.88;;;7.60;91.60;;;;;;5023721;28;20112;-75
2023/02/14 10:34:14;;;;;;;8.18;4.03;;;7.70;91.90;;;;;;5024097;28;20538;-75
2023/02/14 10:36:55;;;;;;;5.97;3.28;;;8.20;91.60;;;;;;5022070;28;20033;-75
2023/02/14 10:39:32;;;;;;;8.07;3.55;;;8.40;90.70;;;;;;5022027;28;20376;-75
2023/02/14 10:42:09;;;;;;;9.32;4.85;;;8.20;91.00;;;;;;5020542;28;20033;-75
2023/02/14 10:44:49;;;;;;;8.27;3.92;;;8.10;90.90;;;;;;5023593;28;20037;-76
2023/02/14 10:47:20;;;;;;;7.28;3.90;;;8.00;90.90;;;;;;5028426;28;20385;-78
2023/02/14 10:49:51;;;;;;;8.35;3.60;;;8.00;91.00;;;;;;5028649;28;20029;-76
2023/02/14 10:52:41;;;;;;;9.15;3.72;;;8.20;91.60;;;;;;5028347;28;20033;-76
2023/02/14 10:55:25;;;;;;;6.15;3.17;;;8.20;91.40;;;;;;5028573;28;20053;-76
2023/02/14 10:57:55;;;;;;;10.27;3.60;;;8.20;90.90;;;;;;5028606;28;20029;-76
2023/02/14 11:00:21;;;;;;;9.93;3.42;;;8.50;91.00;;;;;;5028487;28;20035;-76
2023/02/14 11:02:52;;;;;;;7.57;4.03;;;8.50;90.70;;;;;;5028308;28;20100;-76
2023/02/14 11:05:42;;;;;;;9.45;4.25;;;8.50;90.80;;;;;;5028454;28;20838;-76
2023/02/14 11:08:25;;;;;;;7.65;3.50;;;8.80;90.70;;;;;;5028219;28;20100;-76
2023/02/14 11:10:52;;;;;;;6.75;2.90;;;9.00;90.20;;;;;;5028501;28;20022;-76
2023/02/14 11:13:37;;;;;;;7.47;2.88;;;9.00;90.20;;;;;;5028744;28;20479;-76
2023/02/14 11:16:16;;;;;;;7.68;3.45;;;9.00;90.20;;;;;;5028414;28;20033;-76
2023/02/14 11:18:42;;;;;;;6.50;3.60;;;9.00;89.80;;;;;;5028587;28;20044;-77
2023/02/14 11:21:09;;;;;;;6.68;2.97;;;9.20;89.30;;;;;;5028416;28;20029;-76
2023/02/14 11:23:43;;;;;;;6.68;3.45;;;9.30;88.80;;;;;;5028706;28;20033;-76
2023/02/14 11:26:14;;;;;;;6.43;3.63;;;9.30;89.90;;;;;;5028338;28;20033;-76
2023/02/14 11:28:51;;;;;;;8.90;3.78;;;9.40;89.20;;;;;;5028404;28;20112;-74
2023/02/14 11:31:32;;;;;;;5.63;2.85;;;9.60;89.40;;;;;;5043735;28;20457;-76
2023/02/14 11:33:59;;;;;;;10.57;3.40;;;9.60;88.20;;;;;;5028258;28;20160;-76
2023/02/14 11:36:26;;;;;;;7.22;3.40;;;9.60;88.80;;;;;;5028241;28;20021;-76
2023/02/14 11:39:02;;;;;;;6.68;2.95;;;10.00;87.90;;;;;;5027456;28;20045;-76
2023/02/14 11:41:48;;;;;;;6.75;3.05;;;9.90;87.20;;;;;;5028002;28;20120;-76
2023/02/14 11:44:23;;;;;;;7.40;3.47;;;10.10;89.00;;;;;;5026956;28;20029;-75
2023/02/14 11:46:51;;;;;;;7.75;3.97;;;10.50;88.10;;;;;;5024064;28;20056;-76
2023/02/14 11:49:23;;;;;;;8.90;5.65;;;10.80;86.80;;;;;;5023495;28;20897;-76
2023/02/14 11:51:49;;;;;;;8.05;3.78;;;10.90;87.00;;;;;;5023074;28;20045;-76
2023/02/14 11:54:36;;;;;;;7.40;4.05;;;11.10;86.60;;;;;;5023408;28;20033;-76
2023/02/14 11:57:18;;;;;;;12.20;6.90;;;11.10;86.80;;;;;;5023333;28;20026;-76
2023/02/14 11:59:47;;;;;;;10.82;5.47;;;11.10;86.50;;;;;;5024062;28;20044;-76
2023/02/14 12:02:39;;;;;;;11.93;8.00;;;11.30;86.40;;;;;;5022650;28;20033;-76
2023/02/14 12:05:19;;;;;;;9.75;4.55;;;11.30;86.00;;;;;;5027259;28;20040;-76
2023/02/14 12:07:49;;;;;;;8.65;4.97;;;11.50;85.70;;;;;;5026404;28;20061;-76
2023/02/14 12:10:19;;;;;;;8.38;3.58;;;11.50;85.40;;;;;;5026887;28;20033;-76
2023/02/14 12:12:48;;;;;;;7.25;3.08;;;11.40;85.80;;;;;;5026570;28;20033;-75
2023/02/14 12:15:46;;;;;;;9.55;5.30;;;11.40;85.60;;;;;;5028002;28;20022;-74
2023/02/14 12:18:46;;;;;;;7.22;3.58;;;11.50;85.20;;;;;;5024327;28;20041;-75
2023/02/14 12:21:36;;;;;;;10.57;4.25;;;11.40;84.60;;;;;;5026392;28;20033;-76
2023/02/14 12:24:23;;;;;;;14.77;6.97;;;11.50;84.00;;;;;;5026352;28;20087;-76
2023/02/14 12:27:23;;;;;;;8.55;4.28;;;11.70;84.90;;;;;;5026793;28;20030;-75
2023/02/14 12:30:06;;;;;;;7.80;3.35;;;12.00;83.40;;;;;;5024743;28;20471;-76
2023/02/14 12:32:32;;;;;;;7.40;3.28;;;12.00;83.10;;;;;;5024424;28;20087;-76
2023/02/14 12:35:14;;;;;;;6.60;3.35;;;12.10;82.90;;;;;;5026672;28;20081;-76
2023/02/14 12:38:10;;;;;;;6.97;3.50;;;12.00;82.50;;;;;;5025866;28;20159;-75
2023/02/14 12:41:06;;;;;;;7.20;3.15;;;11.90;82.70;;;;;;5027349;28;20033;-75
2023/02/14 12:43:44;;;;;;;6.32;2.80;;;12.00;83.00;;;;;;5024031;28;20108;-75
2023/02/14 12:46:18;;;;;;;6.22;2.78;;;11.90;81.90;;;;;;5027078;28;20022;-76
2023/02/14 12:49:15;;;;;;;6.43;2.75;;;11.90;83.00;;;;;;5026682;28;20028;-75
2023/02/14 12:51:52;;;;;;;7.55;3.90;;;12.30;83.30;;;;;;5023768;28;20392;-76
2023/02/14 12:54:18;;;;;;;5.70;2.60;;;12.30;82.90;;;;;;5026160;28;20448;-76
2023/02/14 12:57:10;;;;;;;9.98;3.35;;;12.20;82.10;;;;;;5026141;28;20060;-76
2023/02/14 12:59:57;;;;;;;6.45;2.60;;;12.00;81.50;;;;;;5026041;28;20029;-76
2023/02/14 13:02:41;;;;;;;15.23;6.88;;;12.10;82.80;;;;;;5025797;28;20125;-76
2023/02/14 13:05:35;;;;;;;6.95;3.33;;;12.40;82.20;;;;;;5025949;28;20112;-75
2023/02/14 13:08:39;;;;;;;5.88;3.45;;;12.50;80.90;;;;;;5025359;28;20022;-75
2023/02/14 13:11:25;;;;;;;7.28;2.83;;;12.40;81.60;;;;;;5024732;28;23361;-75
2023/02/14 13:14:22;;;;;;;6.43;2.67;;;12.50;81.10;;;;;;5021896;28;20141;-76
2023/02/14 13:17:02;;;;;;;8.40;3.55;;;12.60;81.70;;;;;;5025056;28;20041;-76
2023/02/14 13:19:36;;;;;;;11.93;5.65;;;12.60;81.60;;;;;;5024476;28;20044;-76
2023/02/14 13:22:04;;;;;;;9.45;2.95;;;12.70;81.10;;;;;;5025410;28;20076;-76
2023/02/14 13:24:42;;;;;;;6.53;3.38;;;12.80;81.40;;;;;;5026110;28;20033;-77
2023/02/14 13:27:15;;;;;;;4.65;2.75;;;12.90;81.00;;;;;;5025874;28;20040;-76
2023/02/14 13:29:50;;;;;;;8.75;3.15;;;12.70;80.40;;;;;;5025498;28;20455;-76
2023/02/14 13:32:21;;;;;;;6.70;3.25;;;12.80;81.00;;;;;;5025441;28;20109;-75
2023/02/14 13:34:48;;;;;;;7.45;2.60;;;12.80;80.50;;;;;;5026380;28;20029;-75
2023/02/14 13:37:19;;;;;;;7.78;3.10;;;12.80;81.20;;;;;;5024973;28;20518;-75